sensor_id;sensor_type;location;lat;lon;timestamp;pressure;altitude;pressure_sealevel;temperature;humidity
38253;BME280;24785;52.372;20.672;2023-01-09T00:07:31;99812.16;;;2.71;100.00
38253;BME280;24785;52.372;20.672;2023-01-09T00:17:32;99803.28;;;2.77;100.00
38253;BME280;24785;52.372;20.672;2023-01-09T00:27:33;99810.91;;;2.74;100.00
38253;BME280;24785;52.372;20.672;2023-01-09T00:37:34;99841.13;;;2.78;100.00
38253;BME280;24785;52.372;20.672;2023-01-09T00:47:38;99803.28;;;2.77;100.00
38253;BME280;24785;52.372;20.672;2023-01-09T00:57:40;99787.50;;;2.82;100.00
38253;BME280;24785;52.372;20.672;2023-01-09T01:07:41;99769.03;;;2.71;100.00
38253;BME280;24785;52.372;20.672;2023-01-09T01:17:43;99769.84;;;2.71;100.00
38253;BME280;24785;52.372;20.672;2023-01-09T01:27:44;99749.97;;;2.69;100.00
38253;BME280;24785;52.372;20.672;2023-01-09T01:37:45;99749.25;;;2.73;100.00
38253;BME280;24785;52.372;20.672;2023-01-09T01:48:06;99758.31;;;2.77;100.00
38253;BME280;24785;52.372;20.672;2023-01-09T01:58:12;99764.31;;;2.73;100.00
38253;BME280;24785;52.372;20.672;2023-01-09T02:08:14;99756.13;;;2.74;100.00
38253;BME280;24785;52.372;20.672;2023-01-09T02:29:04;99747.97;;;2.76;100.00
38253;BME280;24785;52.372;20.672;2023-01-09T02:39:25;99741.97;;;2.80;100.00
38253;BME280;24785;52.372;20.672;2023-01-09T02:49:27;99738.03;;;2.83;100.00
38253;BME280;24785;52.372;20.672;2023-01-09T03:09:34;99709.97;;;2.82;100.00
38253;BME280;24785;52.372;20.672;2023-01-09T03:19:38;99698.41;;;2.71;100.00
38253;BME280;24785;52.372;20.672;2023-01-09T03:29:41;99695.03;;;2.76;100.00
38253;BME280;24785;52.372;20.672;2023-01-09T03:39:41;99663.78;;;2.73;100.00
38253;BME280;24785;52.372;20.672;2023-01-09T03:49:43;99647.03;;;2.67;100.00
38253;BME280;24785;52.372;20.672;2023-01-09T03:59:44;99640.94;;;2.67;100.00
38253;BME280;24785;52.372;20.672;2023-01-09T04:09:45;99626.34;;;2.64;100.00
38253;BME280;24785;52.372;20.672;2023-01-09T04:19:46;99621.69;;;2.71;100.00
38253;BME280;24785;52.372;20.672;2023-01-09T04:29:47;99622.00;;;2.75;100.00
38253;BME280;24785;52.372;20.672;2023-01-09T04:39:49;99631.97;;;2.84;100.00
38253;BME280;24785;52.372;20.672;2023-01-09T04:49:50;99624.91;;;2.90;100.00
38253;BME280;24785;52.372;20.672;2023-01-09T04:59:51;99633.47;;;2.97;100.00
38253;BME280;24785;52.372;20.672;2023-01-09T05:09:52;99614.28;;;3.07;100.00
38253;BME280;24785;52.372;20.672;2023-01-09T05:19:53;99596.38;;;3.14;100.00
38253;BME280;24785;52.372;20.672;2023-01-09T05:29:54;99588.56;;;3.24;100.00
38253;BME280;24785;52.372;20.672;2023-01-09T05:39:55;99570.59;;;3.26;100.00
38253;BME280;24785;52.372;20.672;2023-01-09T05:49:56;99570.84;;;3.25;100.00
38253;BME280;24785;52.372;20.672;2023-01-09T05:59:57;99560.97;;;3.20;100.00
38253;BME280;24785;52.372;20.672;2023-01-09T06:09:58;99555.44;;;3.00;100.00
38253;BME280;24785;52.372;20.672;2023-01-09T06:19:58;99555.00;;;3.08;100.00
38253;BME280;24785;52.372;20.672;2023-01-09T06:29:59;99565.91;;;3.11;100.00
38253;BME280;24785;52.372;20.672;2023-01-09T06:40:00;99558.34;;;3.20;100.00
38253;BME280;24785;52.372;20.672;2023-01-09T06:50:01;99551.06;;;3.10;100.00
38253;BME280;24785;52.372;20.672;2023-01-09T07:00:03;99533.88;;;2.91;100.00
38253;BME280;24785;52.372;20.672;2023-01-09T07:10:05;99530.84;;;2.82;100.00
38253;BME280;24785;52.372;20.672;2023-01-09T07:20:06;99522.50;;;2.91;100.00
38253;BME280;24785;52.372;20.672;2023-01-09T07:30:08;99514.56;;;2.91;100.00
38253;BME280;24785;52.372;20.672;2023-01-09T07:40:10;99513.88;;;3.00;100.00
38253;BME280;24785;52.372;20.672;2023-01-09T07:50:11;99521.56;;;3.45;100.00
38253;BME280;24785;52.372;20.672;2023-01-09T08:00:12;99498.72;;;3.66;100.00
38253;BME280;24785;52.372;20.672;2023-01-09T08:10:14;99489.91;;;3.83;100.00
38253;BME280;24785;52.372;20.672;2023-01-09T08:20:16;99498.16;;;4.23;100.00
38253;BME280;24785;52.372;20.672;2023-01-09T08:30:18;99506.50;;;4.37;100.00
38253;BME280;24785;52.372;20.672;2023-01-09T08:40:19;99492.63;;;4.72;100.00
38253;BME280;24785;52.372;20.672;2023-01-09T08:50:19;99501.22;;;4.84;100.00
38253;BME280;24785;52.372;20.672;2023-01-09T09:00:22;99498.34;;;4.96;100.00
38253;BME280;24785;52.372;20.672;2023-01-09T09:10:27;99484.28;;;4.95;100.00
38253;BME280;24785;52.372;20.672;2023-01-09T09:20:34;99463.59;;;5.07;100.00
38253;BME280;24785;52.372;20.672;2023-01-09T09:30:37;99449.78;;;5.05;100.00
38253;BME280;24785;52.372;20.672;2023-01-09T10:01:17;99445.38;;;5.31;100.00
38253;BME280;24785;52.372;20.672;2023-01-09T10:11:41;99438.72;;;5.39;100.00
38253;BME280;24785;52.372;20.672;2023-01-09T10:21:57;99439.78;;;5.38;100.00
38253;BME280;24785;52.372;20.672;2023-01-09T10:32:07;99438.66;;;5.19;100.00
38253;BME280;24785;52.372;20.672;2023-01-09T10:42:34;99422.44;;;5.05;100.00
38253;BME280;24785;52.372;20.672;2023-01-09T10:52:40;99420.84;;;5.09;100.00
38253;BME280;24785;52.372;20.672;2023-01-09T11:02:42;99393.25;;;5.10;100.00
38253;BME280;24785;52.372;20.672;2023-01-09T11:12:43;99382.28;;;4.81;100.00
38253;BME280;24785;52.372;20.672;2023-01-09T11:22:46;99358.06;;;4.67;100.00
38253;BME280;24785;52.372;20.672;2023-01-09T11:32:47;99325.69;;;4.70;100.00
38253;BME280;24785;52.372;20.672;2023-01-09T11:43:13;99314.88;;;4.77;100.00
38253;BME280;24785;52.372;20.672;2023-01-09T11:53:18;99306.31;;;4.65;100.00
38253;BME280;24785;52.372;20.672;2023-01-09T13:15:18;99204.69;;;5.10;100.00
38253;BME280;24785;52.372;20.672;2023-01-09T13:25:42;99187.72;;;5.26;100.00
38253;BME280;24785;52.372;20.672;2023-01-09T13:35:50;99191.94;;;5.32;100.00
38253;BME280;24785;52.372;20.672;2023-01-09T13:45:52;99187.69;;;5.36;100.00
38253;BME280;24785;52.372;20.672;2023-01-09T14:26:16;99186.09;;;5.35;100.00
38253;BME280;24785;52.372;20.672;2023-01-09T14:36:19;99189.81;;;5.40;100.00
38253;BME280;24785;52.372;20.672;2023-01-09T14:46:24;99187.13;;;5.45;100.00
38253;BME280;24785;52.372;20.672;2023-01-09T14:56:30;99187.66;;;5.52;100.00
38253;BME280;24785;52.372;20.672;2023-01-09T15:06:34;99190.00;;;5.58;100.00
38253;BME280;24785;52.372;20.672;2023-01-09T15:16:36;99176.97;;;5.62;100.00
38253;BME280;24785;52.372;20.672;2023-01-09T15:26:38;99191.88;;;5.68;100.00
38253;BME280;24785;52.372;20.672;2023-01-09T15:36:39;99196.63;;;5.71;100.00
38253;BME280;24785;52.372;20.672;2023-01-09T15:46:40;99181.50;;;5.72;100.00
38253;BME280;24785;52.372;20.672;2023-01-09T15:56:42;99199.81;;;5.78;100.00
38253;BME280;24785;52.372;20.672;2023-01-09T16:06:47;99189.16;;;5.83;100.00
38253;BME280;24785;52.372;20.672;2023-01-09T16:16:52;99197.91;;;5.89;100.00
38253;BME280;24785;52.372;20.672;2023-01-09T16:27:33;99191.25;;;5.91;100.00
38253;BME280;24785;52.372;20.672;2023-01-09T16:37:34;99214.66;;;5.94;100.00
38253;BME280;24785;52.372;20.672;2023-01-09T16:47:37;99209.06;;;5.96;100.00
38253;BME280;24785;52.372;20.672;2023-01-09T16:57:37;99218.59;;;6.02;100.00
38253;BME280;24785;52.372;20.672;2023-01-09T17:07:41;99224.97;;;6.06;100.00
38253;BME280;24785;52.372;20.672;2023-01-09T17:17:43;99228.63;;;6.25;100.00
38253;BME280;24785;52.372;20.672;2023-01-09T17:27:44;99227.56;;;6.26;100.00
38253;BME280;24785;52.372;20.672;2023-01-09T17:38:03;99240.31;;;6.29;100.00
38253;BME280;24785;52.372;20.672;2023-01-09T17:48:04;99234.72;;;6.31;100.00
38253;BME280;24785;52.372;20.672;2023-01-09T17:58:05;99249.59;;;6.32;100.00
38253;BME280;24785;52.372;20.672;2023-01-09T18:08:07;99253.88;;;6.28;100.00
38253;BME280;24785;52.372;20.672;2023-01-09T18:18:09;99280.94;;;6.45;100.00
38253;BME280;24785;52.372;20.672;2023-01-09T18:28:12;99284.66;;;6.44;100.00
38253;BME280;24785;52.372;20.672;2023-01-09T18:38:16;99310.75;;;6.42;100.00
38253;BME280;24785;52.372;20.672;2023-01-09T18:48:17;99322.25;;;6.27;100.00
38253;BME280;24785;52.372;20.672;2023-01-09T18:58:18;99341.59;;;6.48;100.00
38253;BME280;24785;52.372;20.672;2023-01-09T19:08:19;99356.50;;;6.49;100.00
38253;BME280;24785;52.372;20.672;2023-01-09T19:18:21;99377.28;;;6.37;100.00
38253;BME280;24785;52.372;20.672;2023-01-09T19:28:23;99395.94;;;6.32;100.00
38253;BME280;24785;52.372;20.672;2023-01-09T19:38:24;99416.94;;;6.34;100.00
38253;BME280;24785;52.372;20.672;2023-01-09T19:48:26;99422.84;;;6.20;100.00
38253;BME280;24785;52.372;20.672;2023-01-09T19:58:28;99417.50;;;6.25;100.00
38253;BME280;24785;52.372;20.672;2023-01-09T20:08:29;99431.88;;;6.24;100.00
38253;BME280;24785;52.372;20.672;2023-01-09T20:18:32;99458.75;;;6.23;100.00
38253;BME280;24785;52.372;20.672;2023-01-09T20:28:33;99461.16;;;6.19;100.00
38253;BME280;24785;52.372;20.672;2023-01-09T20:38:39;99485.88;;;6.15;100.00
38253;BME280;24785;52.372;20.672;2023-01-09T20:48:40;99496.50;;;6.05;100.00
38253;BME280;24785;52.372;20.672;2023-01-09T20:58:41;99526.28;;;5.96;100.00
38253;BME280;24785;52.372;20.672;2023-01-09T21:08:43;99541.47;;;6.06;100.00
38253;BME280;24785;52.372;20.672;2023-01-09T21:18:45;99565.94;;;6.08;100.00
38253;BME280;24785;52.372;20.672;2023-01-09T21:28:47;99576.28;;;5.89;100.00
38253;BME280;24785;52.372;20.672;2023-01-09T21:38:49;99610.06;;;5.94;100.00
38253;BME280;24785;52.372;20.672;2023-01-09T21:48:53;99617.72;;;5.85;100.00
38253;BME280;24785;52.372;20.672;2023-01-09T21:58:54;99639.47;;;5.72;100.00
38253;BME280;24785;52.372;20.672;2023-01-09T22:08:55;99644.53;;;5.68;100.00
38253;BME280;24785;52.372;20.672;2023-01-09T22:18:57;99649.28;;;5.66;100.00
38253;BME280;24785;52.372;20.672;2023-01-09T22:28:57;99667.59;;;5.63;100.00
38253;BME280;24785;52.372;20.672;2023-01-09T22:38:59;99679.53;;;5.55;100.00
38253;BME280;24785;52.372;20.672;2023-01-09T22:49:00;99664.63;;;5.54;100.00
38253;BME280;24785;52.372;20.672;2023-01-09T22:59:02;99680.56;;;5.54;100.00
38253;BME280;24785;52.372;20.672;2023-01-09T23:09:03;99687.78;;;5.59;100.00
38253;BME280;24785;52.372;20.672;2023-01-09T23:19:05;99694.94;;;5.58;100.00
38253;BME280;24785;52.372;20.672;2023-01-09T23:29:09;99714.06;;;5.55;100.00
38253;BME280;24785;52.372;20.672;2023-01-09T23:39:10;99719.66;;;5.54;100.00
38253;BME280;24785;52.372;20.672;2023-01-09T23:49:11;99724.69;;;5.50;100.00
38253;BME280;24785;52.372;20.672;2023-01-09T23:59:12;99732.38;;;5.52;100.00
